createdAt,value
2023-02-06T00:02:01.301Z,103244.31
2023-02-06T00:04:03.414Z,103278.00
2023-02-06T00:06:05.341Z,103245.03
2023-02-06T00:08:06.782Z,103280.63
2023-02-06T00:10:08.676Z,103280.72
2023-02-06T00:12:10.286Z,103281.56
2023-02-06T00:14:11.732Z,103262.50
2023-02-06T00:16:18.587Z,103270.44
2023-02-06T00:18:20.443Z,103254.81
2023-02-06T00:20:21.965Z,103280.78
2023-02-06T00:22:23.357Z,103272.19
2023-02-06T00:24:25.033Z,103245.28
2023-02-06T00:26:27.499Z,103267.09
2023-02-06T00:28:28.980Z,103259.44
2023-02-06T00:30:30.674Z,103243.00
2023-02-06T00:32:32.197Z,103249.91
2023-02-06T00:34:33.593Z,103214.28
2023-02-06T00:36:35.298Z,103233.28
2023-02-06T00:38:37.993Z,103225.56
2023-02-06T00:40:39.598Z,103202.28
2023-02-06T00:42:41.084Z,103249.19
2023-02-06T00:44:42.512Z,103219.72
2023-02-06T00:46:43.939Z,103208.28
2023-02-06T00:48:45.770Z,103222.94
2023-02-06T00:50:50.945Z,103225.59
2023-02-06T00:52:52.460Z,103245.53
2023-02-06T00:54:54.153Z,103237.59
2023-02-06T00:56:55.589Z,103245.16
2023-02-06T00:58:57.087Z,103243.59
2023-02-06T01:00:58.848Z,103198.59
2023-02-06T01:03:02.819Z,103212.53
2023-02-06T01:05:04.806Z,103201.41
2023-02-06T01:07:06.499Z,103230.94
2023-02-06T01:09:07.907Z,103227.41
2023-02-06T01:11:13.377Z,103242.03
2023-02-06T01:13:14.867Z,103238.53
2023-02-06T01:15:16.523Z,103194.47
2023-02-06T01:17:17.984Z,103194.50
2023-02-06T01:19:19.650Z,103236.13
2023-02-06T01:21:23.780Z,103217.13
2023-02-06T01:23:25.193Z,103227.53
2023-02-06T01:25:26.911Z,103223.19
2023-02-06T01:27:29.240Z,103205.00
2023-02-06T01:29:30.636Z,103217.97
2023-02-06T01:31:32.542Z,103205.75
2023-02-06T01:33:37.323Z,103233.59
2023-02-06T01:35:38.735Z,103220.50
2023-02-06T01:37:41.188Z,103234.13
2023-02-06T01:39:42.698Z,103200.25
2023-02-06T01:41:44.123Z,103202.13
2023-02-06T01:44:08.498Z,103220.28
2023-02-06T01:46:10.706Z,103202.97
2023-02-06T01:48:20.909Z,103212.50
2023-02-06T01:50:22.915Z,103236.78
2023-02-06T01:52:27.644Z,103246.91
2023-02-06T01:54:29.127Z,103240.94
2023-02-06T01:56:40.433Z,103227.78
2023-02-06T01:58:44.724Z,103220.06
2023-02-06T02:00:46.370Z,103243.38
2023-02-06T02:02:49.492Z,103252.00
2023-02-06T02:04:51.226Z,103250.41
2023-02-06T02:07:15.213Z,103234.91
2023-02-06T02:09:18.655Z,103221.00
2023-02-06T02:11:28.147Z,103250.38
2023-02-06T02:13:29.590Z,103227.06
2023-02-06T02:15:52.665Z,103209.84
2023-02-06T02:18:21.410Z,103230.69
2023-02-06T02:20:41.724Z,103173.50
2023-02-06T02:23:16.717Z,103207.41
2023-02-06T02:25:54.605Z,103228.16
2023-02-06T02:28:27.100Z,103245.44
2023-02-06T02:30:50.097Z,103235.84
2023-02-06T02:32:59.771Z,103247.16
2023-02-06T02:35:35.498Z,103236.91
2023-02-06T02:37:49.361Z,103240.34
2023-02-06T02:39:56.999Z,103236.97
2023-02-06T02:42:37.055Z,103237.00
2023-02-06T02:44:55.507Z,103230.91
2023-02-06T02:47:02.091Z,103219.66
2023-02-06T02:49:09.352Z,103235.25
2023-02-06T02:51:11.557Z,103197.13
2023-02-06T02:53:13.965Z,103230.97
2023-02-06T02:55:21.686Z,103223.16
2023-02-06T02:57:28.907Z,103194.56
2023-02-06T02:59:39.711Z,103208.47
2023-02-06T03:01:47.986Z,103194.50
2023-02-06T03:03:54.404Z,103209.31
2023-02-06T03:06:22.478Z,103203.28
2023-02-06T03:08:32.275Z,103210.16
2023-02-06T03:10:44.670Z,103120.84
2023-02-06T03:13:07.761Z,103204.91
2023-02-06T03:15:12.371Z,103212.78
2023-02-06T03:17:18.361Z,103165.19
2023-02-06T03:19:48.049Z,103198.13
2023-02-06T03:21:50.252Z,103184.78
2023-02-06T03:23:56.002Z,103186.38
2023-02-06T03:26:02.889Z,103203.88
2023-02-06T03:28:14.070Z,103164.97
2023-02-06T03:30:16.586Z,103199.72
2023-02-06T03:32:28.364Z,103196.38
2023-02-06T03:34:44.562Z,103199.00
2023-02-06T03:36:46.476Z,103191.25
2023-02-06T03:38:50.920Z,103192.97
2023-02-06T03:40:54.546Z,103152.22
2023-02-06T03:42:59.798Z,103163.47
2023-02-06T03:45:06.182Z,103197.22
2023-02-06T03:47:11.526Z,103171.06
2023-02-06T03:49:16.674Z,103182.78
2023-02-06T03:51:24.483Z,103172.47
2023-02-06T03:53:26.400Z,103168.38
2023-02-06T03:55:27.938Z,103203.13
2023-02-06T03:57:32.582Z,103201.41
2023-02-06T03:59:34.197Z,103168.50
2023-02-06T04:01:40.716Z,103192.00
2023-02-06T04:03:42.410Z,103169.38
2023-02-06T04:05:43.934Z,103160.50
2023-02-06T04:07:45.627Z,103162.06
2023-02-06T04:09:47.287Z,103131.00
2023-02-06T04:11:48.804Z,103173.56
2023-02-06T04:13:50.244Z,103168.31
2023-02-06T04:15:51.826Z,103158.94
2023-02-06T04:18:00.328Z,103169.41
2023-02-06T04:20:02.346Z,103193.47
2023-02-06T04:22:04.834Z,103158.06
2023-02-06T04:24:06.595Z,103134.72
2023-02-06T04:26:08.023Z,103151.84
2023-02-06T04:28:09.685Z,103165.03
2023-02-06T04:30:11.866Z,103153.00
2023-02-06T04:32:13.343Z,103153.09
2023-02-06T04:34:14.764Z,103176.56
2023-02-06T04:36:16.169Z,103193.09
2023-02-06T04:38:17.623Z,103180.94
2023-02-06T04:40:19.269Z,103168.69
2023-02-06T04:42:20.760Z,103191.13
2023-02-06T04:44:23.083Z,103198.22
2023-02-06T04:46:25.669Z,103105.50
2023-02-06T04:48:27.324Z,103179.16
2023-02-06T04:50:28.814Z,103205.13
2023-02-06T04:52:30.478Z,103184.34
2023-02-06T04:54:32.857Z,103169.59
2023-02-06T04:56:34.379Z,103165.41
2023-02-06T04:58:37.368Z,103206.19
2023-02-06T05:00:38.950Z,103187.19
2023-02-06T05:02:40.402Z,103192.16
2023-02-06T05:04:41.927Z,103180.00
2023-02-06T05:06:43.829Z,103180.13
2023-02-06T05:08:45.257Z,103168.78
2023-02-06T05:10:46.794Z,103190.56
2023-02-06T05:12:48.577Z,103202.69
2023-02-06T05:14:50.100Z,103177.50
2023-02-06T05:16:51.704Z,103170.63
2023-02-06T05:18:57.013Z,103178.50
2023-02-06T05:20:58.414Z,103176.81
2023-02-06T05:22:59.999Z,103207.94
2023-02-06T05:25:01.983Z,103188.75
2023-02-06T05:27:06.438Z,103216.41
2023-02-06T05:29:08.185Z,103211.34
2023-02-06T05:31:10.022Z,103192.41
2023-02-06T05:33:11.474Z,103205.50
2023-02-06T05:35:13.032Z,103215.00
2023-02-06T05:37:14.607Z,103199.41
2023-02-06T05:39:16.028Z,103230.66
2023-02-06T05:41:18.575Z,103196.91
2023-02-06T05:43:20.188Z,103176.09
2023-02-06T05:45:21.585Z,103206.41
2023-02-06T05:47:23.345Z,103225.44
2023-02-06T05:49:24.928Z,103194.13
2023-02-06T05:51:26.383Z,103192.44
2023-02-06T05:53:27.799Z,103241.91
2023-02-06T05:55:29.449Z,103197.75
2023-02-06T05:57:30.855Z,103196.13
2023-02-06T05:59:32.666Z,103231.66
2023-02-06T06:01:34.156Z,103232.50
2023-02-06T06:03:35.626Z,103230.81
2023-02-06T06:05:37.411Z,103225.56
2023-02-06T06:07:39.220Z,103231.63
2023-02-06T06:09:40.632Z,103200.47
2023-02-06T06:11:42.276Z,103233.38
2023-02-06T06:13:43.796Z,103190.13
2023-02-06T06:15:45.230Z,103191.97
2023-02-06T06:17:46.752Z,103216.19
2023-02-06T06:19:48.224Z,103201.44
2023-02-06T06:21:49.709Z,103217.09
2023-02-06T06:23:51.298Z,103194.56
2023-02-06T06:25:52.837Z,103198.91
2023-02-06T06:27:54.324Z,103192.81
2023-02-06T06:29:55.961Z,103221.41
2023-02-06T06:31:58.195Z,103204.94
2023-02-06T06:33:59.602Z,103200.66
2023-02-06T06:36:01.096Z,103207.59
2023-02-06T06:38:02.543Z,103224.91
2023-02-06T06:40:04.254Z,103224.94
2023-02-06T06:42:05.751Z,103199.81
2023-02-06T06:44:07.198Z,103198.09
2023-02-06T06:46:08.957Z,103173.00
2023-02-06T06:48:10.523Z,103237.91
2023-02-06T06:50:12.009Z,103183.38
2023-02-06T06:52:23.272Z,103218.00
2023-02-06T06:54:26.222Z,103210.22
2023-02-06T06:56:27.654Z,103204.16
2023-02-06T06:58:29.052Z,103205.88
2023-02-06T07:00:30.617Z,103237.03
2023-02-06T07:02:32.108Z,103243.06
2023-02-06T07:04:33.659Z,103200.66
2023-02-06T07:06:35.077Z,103256.91
2023-02-06T07:08:37.242Z,103224.03
2023-02-06T07:10:38.688Z,103263.84
2023-02-06T07:12:40.292Z,103256.06
2023-02-06T07:14:41.694Z,103255.22
2023-02-06T07:16:43.099Z,103241.38
2023-02-06T07:18:44.556Z,103259.53
2023-02-06T07:20:46.147Z,103211.94
2023-02-06T07:22:47.935Z,103245.69
2023-02-06T07:24:49.616Z,103269.91
2023-02-06T07:26:51.131Z,103238.75
2023-02-06T07:28:52.542Z,103220.59
2023-02-06T07:30:54.672Z,103244.84
2023-02-06T07:32:56.502Z,103275.13
2023-02-06T07:34:57.888Z,103247.41
2023-02-06T07:36:59.501Z,103264.69
2023-02-06T07:39:03.095Z,103230.09
2023-02-06T07:41:04.455Z,103270.78
2023-02-06T07:43:07.281Z,103235.31
2023-02-06T07:45:09.236Z,103261.28
2023-02-06T07:47:10.642Z,103203.28
2023-02-06T07:49:12.924Z,103216.25
2023-02-06T07:51:14.666Z,103225.78
2023-02-06T07:53:16.061Z,103236.16
2023-02-06T07:55:17.742Z,103248.28
2023-02-06T07:57:20.027Z,103245.66
2023-02-06T07:59:21.505Z,103215.34
2023-02-06T08:01:23.647Z,103247.34
2023-02-06T08:03:25.257Z,103244.75
2023-02-06T08:05:26.673Z,103249.94
2023-02-06T08:07:28.158Z,103252.50
2023-02-06T08:09:29.844Z,103248.19
2023-02-06T08:11:31.301Z,103247.31
2023-02-06T08:13:32.852Z,103256.78
2023-02-06T08:15:34.722Z,103241.09
2023-02-06T08:17:36.322Z,103216.88
2023-02-06T08:19:37.754Z,103248.00
2023-02-06T08:21:39.263Z,103228.94
2023-02-06T08:23:41.306Z,103240.91
2023-02-06T08:25:42.966Z,103176.09
2023-02-06T08:27:44.511Z,103232.00
2023-02-06T08:29:46.134Z,103233.53
2023-02-06T08:31:47.964Z,103251.63
2023-02-06T08:33:50.175Z,103246.81
2023-02-06T08:35:51.549Z,103231.78
2023-02-06T08:37:53.123Z,103221.88
2023-02-06T08:39:54.594Z,103207.34
2023-02-06T08:41:56.115Z,103229.50
2023-02-06T08:43:59.800Z,103265.03
2023-02-06T08:46:01.473Z,103228.69
2023-02-06T08:48:03.104Z,103237.50
2023-02-06T08:50:04.981Z,103228.88
2023-02-06T08:52:06.461Z,103259.13
2023-02-06T08:54:12.832Z,103260.66
2023-02-06T08:56:14.466Z,103261.50
2023-02-06T08:58:16.068Z,103249.28
2023-02-06T09:00:17.845Z,103253.53
2023-02-06T09:02:19.465Z,103266.22
2023-02-06T09:04:21.362Z,103265.44
2023-02-06T09:06:23.075Z,103264.38
2023-02-06T09:08:24.645Z,103267.03
2023-02-06T09:10:28.040Z,103251.69
2023-02-06T09:12:29.738Z,103270.69
2023-02-06T09:14:31.710Z,103273.34
2023-02-06T09:16:33.984Z,103274.13
2023-02-06T09:18:36.093Z,103277.41
2023-02-06T09:20:37.524Z,103277.56
2023-02-06T09:22:39.014Z,103276.75
2023-02-06T09:24:40.567Z,103272.41
2023-02-06T09:26:58.608Z,103280.44
2023-02-06T09:29:03.275Z,103276.75
2023-02-06T09:31:04.945Z,103276.69
2023-02-06T09:33:06.514Z,103279.50
2023-02-06T09:35:08.227Z,103282.75
2023-02-06T09:37:09.642Z,103277.31
2023-02-06T09:39:11.129Z,103277.47
2023-02-06T09:41:22.393Z,103260.50
2023-02-06T09:43:24.080Z,103256.53
2023-02-06T09:45:28.942Z,103247.44
2023-02-06T09:47:33.461Z,103268.97
2023-02-06T09:49:40.916Z,103256.53
2023-02-06T09:52:22.468Z,103270.34
2023-02-06T09:55:25.506Z,103261.81
2023-02-06T09:57:49.076Z,103288.22
2023-02-06T10:00:04.232Z,103252.38
2023-02-06T10:02:39.605Z,103278.78
2023-02-06T10:04:53.115Z,103267.75
2023-02-06T10:07:08.250Z,103239.53
2023-02-06T10:09:15.710Z,103272.84
2023-02-06T10:11:38.889Z,103276.09
2023-02-06T10:13:58.185Z,103281.78
2023-02-06T10:16:23.765Z,103269.31
2023-02-06T10:18:50.075Z,103273.84
2023-02-06T10:20:58.454Z,103262.47
2023-02-06T10:23:24.376Z,103273.88
2023-02-06T10:25:32.910Z,103262.38
2023-02-06T10:27:35.649Z,103251.56
2023-02-06T10:29:37.634Z,103249.97
2023-02-06T10:31:39.644Z,103262.88
2023-02-06T10:34:10.985Z,103264.91
2023-02-06T10:36:49.997Z,103274.56
2023-02-06T10:39:14.652Z,103269.22
2023-02-06T10:41:39.375Z,103268.25
2023-02-06T10:43:49.743Z,103263.88
2023-02-06T10:46:20.748Z,103268.91
2023-02-06T10:48:37.066Z,103274.81
2023-02-06T10:50:51.009Z,103276.97
2023-02-06T10:52:53.453Z,103265.97
2023-02-06T10:54:58.581Z,103269.72
2023-02-06T10:57:00.847Z,103228.44
2023-02-06T10:59:07.466Z,103251.50
2023-02-06T11:01:25.092Z,103269.34
2023-02-06T11:03:30.759Z,103261.53
2023-02-06T11:05:32.317Z,103272.97
2023-02-06T11:07:41.003Z,103275.56
2023-02-06T11:09:42.602Z,103275.78
2023-02-06T11:11:48.393Z,103267.28
2023-02-06T11:13:55.503Z,103270.97
2023-02-06T11:16:07.534Z,103269.00
2023-02-06T11:18:17.417Z,103268.13
2023-02-06T11:20:23.086Z,103272.47
2023-02-06T11:22:31.243Z,103234.63
2023-02-06T11:24:36.533Z,103272.31
2023-02-06T11:26:57.628Z,103269.91
2023-02-06T11:29:09.581Z,103265.72
2023-02-06T11:31:11.319Z,103269.00
2023-02-06T11:33:22.785Z,103238.63
2023-02-06T11:35:31.026Z,103261.72
2023-02-06T11:37:38.362Z,103260.66
2023-02-06T11:39:39.807Z,103272.84
2023-02-06T11:41:41.378Z,103283.16
2023-02-06T11:43:42.858Z,103284.28
2023-02-06T11:45:45.638Z,103280.97
2023-02-06T11:47:47.359Z,103270.88
2023-02-06T11:49:48.805Z,103254.28
2023-02-06T11:51:52.145Z,103260.63
2023-02-06T11:54:02.018Z,103268.75
2023-02-06T11:56:05.345Z,103272.41
2023-02-06T11:58:12.530Z,103265.97
2023-02-06T12:00:23.079Z,103274.59
2023-02-06T12:02:30.343Z,103275.94
2023-02-06T12:04:36.874Z,103268.34
2023-02-06T12:06:40.614Z,103271.34
2023-02-06T12:08:49.270Z,103269.88
2023-02-06T12:11:02.962Z,103269.00
2023-02-06T12:13:09.213Z,103242.03
2023-02-06T12:15:44.752Z,103273.91
2023-02-06T12:17:52.672Z,103259.44
2023-02-06T12:20:02.874Z,103264.16
2023-02-06T12:22:17.683Z,103242.16
2023-02-06T12:24:37.655Z,103265.59
2023-02-06T12:26:40.537Z,103218.09
2023-02-06T12:29:06.420Z,103260.28
2023-02-06T12:31:13.947Z,103259.91
2023-02-06T12:33:20.394Z,103252.31
2023-02-06T12:35:33.213Z,103252.31
2023-02-06T12:37:44.002Z,103252.16
2023-02-06T12:39:45.509Z,103236.63
2023-02-06T12:42:05.604Z,103241.28
2023-02-06T12:44:16.578Z,103229.91
2023-02-06T12:46:22.799Z,103246.47
2023-02-06T12:48:50.453Z,103225.53
2023-02-06T12:51:10.134Z,103246.97
2023-02-06T12:53:33.983Z,103242.78
2023-02-06T12:55:40.663Z,103235.59
2023-02-06T12:57:42.570Z,103236.72
2023-02-06T12:59:58.962Z,103241.06
2023-02-06T13:02:18.916Z,103237.38
2023-02-06T13:04:24.116Z,103225.41
2023-02-06T13:06:29.762Z,103250.94
2023-02-06T13:08:42.220Z,103251.53
2023-02-06T13:10:44.178Z,103242.94
2023-02-06T13:12:54.152Z,103240.69
2023-02-06T13:14:58.306Z,103213.94
2023-02-06T13:17:07.218Z,103232.88
2023-02-06T13:19:38.824Z,103240.53
2023-02-06T13:21:40.316Z,103243.28
2023-02-06T13:24:03.759Z,103249.41
2023-02-06T13:26:05.429Z,103252.78
2023-02-06T13:28:22.518Z,103246.50
2023-02-06T13:30:23.948Z,103239.41
2023-02-06T13:32:41.211Z,103201.25
2023-02-06T13:34:50.920Z,103228.00
2023-02-06T13:36:53.391Z,103215.81
2023-02-06T13:39:13.937Z,103225.94
2023-02-06T13:41:15.488Z,103242.56
2023-02-06T13:43:21.571Z,103234.00
2023-02-06T13:45:58.597Z,103248.69
2023-02-06T13:48:20.934Z,103233.06
2023-02-06T13:50:37.536Z,103242.69
2023-02-06T13:53:00.995Z,103243.66
2023-02-06T13:55:29.137Z,103251.13
2023-02-06T13:57:54.421Z,103244.34
2023-02-06T14:00:09.241Z,103226.19
2023-02-06T14:02:23.116Z,103251.34
2023-02-06T14:04:26.533Z,103242.88
2023-02-06T14:06:46.259Z,103254.00
2023-02-06T14:09:16.132Z,103254.00
2023-02-06T14:11:41.580Z,103258.19
2023-02-06T14:14:17.144Z,103262.78
2023-02-06T14:16:24.412Z,103253.31
2023-02-06T14:19:01.105Z,103273.09
2023-02-06T14:21:18.239Z,103249.75
2023-02-06T14:23:55.562Z,103273.06
2023-02-06T14:26:06.043Z,103268.06
2023-02-06T14:28:35.058Z,103268.88
2023-02-06T14:30:48.603Z,103272.50
2023-02-06T14:33:02.132Z,103265.59
2023-02-06T14:35:15.902Z,103262.94
2023-02-06T14:37:45.335Z,103262.88
2023-02-06T14:39:54.327Z,103257.69
2023-02-06T14:41:56.908Z,103260.31
2023-02-06T14:43:59.511Z,103269.84
2023-02-06T14:46:07.852Z,103270.66
2023-02-06T14:48:34.288Z,103268.94
2023-02-06T14:50:39.262Z,103274.22
2023-02-06T14:52:40.802Z,103268.16
2023-02-06T14:54:42.433Z,103226.78
2023-02-06T14:56:43.881Z,103277.03
2023-02-06T14:58:46.135Z,103277.13
2023-02-06T15:00:47.873Z,103256.47
2023-02-06T15:03:13.860Z,103240.88
2023-02-06T15:05:25.913Z,103272.88
2023-02-06T15:07:30.200Z,103269.41
2023-02-06T15:09:34.348Z,103270.25
2023-02-06T15:11:35.770Z,103269.41
2023-02-06T15:13:50.135Z,103246.88
2023-02-06T15:15:54.515Z,103249.59
2023-02-06T15:18:08.418Z,103267.84
2023-02-06T15:20:39.134Z,103290.41
2023-02-06T15:22:40.774Z,103285.25
2023-02-06T15:25:10.792Z,103266.25
2023-02-06T15:27:26.543Z,103281.81
2023-02-06T15:29:28.357Z,103277.50
2023-02-06T15:31:30.999Z,103283.53
2023-02-06T15:33:34.419Z,103285.28
2023-02-06T15:35:41.285Z,103269.75
2023-02-06T15:37:43.824Z,103291.38
2023-02-06T15:39:45.542Z,103277.59
2023-02-06T15:41:52.192Z,103301.00
2023-02-06T15:43:59.963Z,103305.34
2023-02-06T15:46:03.016Z,103245.66
2023-02-06T15:48:12.290Z,103288.09
2023-02-06T15:50:19.207Z,103309.72
2023-02-06T15:52:36.426Z,103294.13
2023-02-06T15:54:39.757Z,103323.56
2023-02-06T15:56:43.008Z,103323.59
2023-02-06T15:58:45.179Z,103305.44
2023-02-06T16:00:53.019Z,103323.63
2023-02-06T16:02:59.156Z,103285.50
2023-02-06T16:05:01.984Z,103327.94
2023-02-06T16:07:22.424Z,103313.22
2023-02-06T16:09:25.704Z,103324.47
2023-02-06T16:11:34.365Z,103327.06
2023-02-06T16:13:35.944Z,103322.75
2023-02-06T16:15:39.641Z,103314.94
2023-02-06T16:17:41.335Z,103315.81
2023-02-06T16:19:49.683Z,103315.81
2023-02-06T16:22:26.889Z,103326.22
2023-02-06T16:24:28.541Z,103329.66
2023-02-06T16:26:32.559Z,103334.00
2023-02-06T16:28:41.512Z,103330.53
2023-02-06T16:30:43.086Z,103346.91
2023-02-06T16:32:44.575Z,103339.03
2023-02-06T16:34:46.919Z,103327.75
2023-02-06T16:36:48.665Z,103337.28
2023-02-06T16:39:02.653Z,103365.78
2023-02-06T16:41:24.199Z,103370.91
2023-02-06T16:43:27.627Z,103361.41
2023-02-06T16:45:29.041Z,103363.19
2023-02-06T16:47:30.416Z,103338.97
2023-02-06T16:49:31.879Z,103349.38
2023-02-06T16:51:33.286Z,103367.56
2023-02-06T16:53:34.718Z,103338.09
2023-02-06T16:55:36.643Z,103347.66
2023-02-06T16:57:42.613Z,103373.63
2023-02-06T16:59:44.026Z,103380.47
2023-02-06T17:01:45.628Z,103357.03
2023-02-06T17:03:47.176Z,103385.63
2023-02-06T17:05:49.756Z,103388.22
2023-02-06T17:07:52.258Z,103374.38
2023-02-06T17:09:56.030Z,103373.50
2023-02-06T17:11:57.417Z,103361.34
2023-02-06T17:13:59.118Z,103395.06
2023-02-06T17:16:01.013Z,103382.03
2023-02-06T17:18:02.432Z,103371.63
2023-02-06T17:20:04.780Z,103386.44
2023-02-06T17:22:07.067Z,103353.47
2023-02-06T17:24:08.487Z,103381.22
2023-02-06T17:26:15.315Z,103382.13
2023-02-06T17:28:19.145Z,103377.78
2023-02-06T17:30:23.075Z,103382.91
2023-02-06T17:32:24.825Z,103381.19
2023-02-06T17:34:26.901Z,103379.41
2023-02-06T17:36:28.307Z,103342.09
2023-02-06T17:38:29.991Z,103382.75
2023-02-06T17:40:34.327Z,103388.69
2023-02-06T17:42:35.763Z,103365.19
2023-02-06T17:44:37.714Z,103370.41
2023-02-06T17:46:39.482Z,103386.13
2023-02-06T17:48:41.001Z,103367.03
2023-02-06T17:50:42.880Z,103385.16
2023-02-06T17:52:44.476Z,103361.78
2023-02-06T17:54:45.927Z,103376.50
2023-02-06T17:56:47.503Z,103371.22
2023-02-06T17:58:49.192Z,103379.88
2023-02-06T18:00:50.618Z,103366.84
2023-02-06T18:02:54.149Z,103352.22
2023-02-06T18:04:55.636Z,103340.97
2023-02-06T18:06:57.117Z,103347.97
2023-02-06T18:08:58.707Z,103357.31
2023-02-06T18:11:00.169Z,103388.38
2023-02-06T18:13:01.580Z,103382.41
2023-02-06T18:15:04.777Z,103379.81
2023-02-06T18:17:06.502Z,103364.22
2023-02-06T18:19:07.992Z,103379.06
2023-02-06T18:21:09.647Z,103351.28
2023-02-06T18:23:11.803Z,103377.25
2023-02-06T18:25:14.913Z,103345.16
2023-02-06T18:27:17.747Z,103358.19
2023-02-06T18:29:19.143Z,103364.25
2023-02-06T18:31:31.802Z,103365.03
2023-02-06T18:33:34.148Z,103344.94
2023-02-06T18:35:39.559Z,103344.09
2023-02-06T18:37:41.287Z,103372.81
2023-02-06T18:39:42.980Z,103352.09
2023-02-06T18:41:44.379Z,103365.09
2023-02-06T18:43:45.752Z,103346.00
2023-02-06T18:45:47.430Z,103312.28
2023-02-06T18:47:49.119Z,103357.44
2023-02-06T18:49:50.564Z,103363.50
2023-02-06T18:51:52.171Z,103334.66
2023-02-06T18:53:53.587Z,103372.59
2023-02-06T18:55:58.440Z,103369.97
2023-02-06T18:57:59.996Z,103375.16
2023-02-06T19:00:01.458Z,103382.88
2023-02-06T19:02:02.999Z,103391.44
2023-02-06T19:04:04.845Z,103383.69
2023-02-06T19:06:14.885Z,103366.25
2023-02-06T19:08:16.270Z,103381.97
2023-02-06T19:10:19.006Z,103347.22
2023-02-06T19:12:20.403Z,103385.38
2023-02-06T19:14:21.829Z,103377.44
2023-02-06T19:16:23.460Z,103369.63
2023-02-06T19:18:37.648Z,103369.53
2023-02-06T19:20:43.483Z,103395.50
2023-02-06T19:22:45.000Z,103398.94
2023-02-06T19:24:46.385Z,103381.56
2023-02-06T19:26:47.781Z,103357.22
2023-02-06T19:28:49.999Z,103385.91
2023-02-06T19:30:51.469Z,103389.34
2023-02-06T19:32:52.901Z,103385.81
2023-02-06T19:34:54.813Z,103386.56
2023-02-06T19:36:56.230Z,103378.03
2023-02-06T19:39:00.483Z,103376.22
2023-02-06T19:41:16.811Z,103389.22
2023-02-06T19:43:18.635Z,103356.38
2023-02-06T19:45:20.034Z,103383.41
2023-02-06T19:47:22.007Z,103361.75
2023-02-06T19:49:24.336Z,103374.88
2023-02-06T19:51:30.348Z,103354.94
2023-02-06T19:53:31.992Z,103353.97
2023-02-06T19:55:33.543Z,103349.47
2023-02-06T19:57:37.200Z,103378.78
2023-02-06T19:59:40.895Z,103390.75
2023-02-06T20:01:42.328Z,103379.47
2023-02-06T20:03:44.347Z,103349.13
2023-02-06T20:05:45.880Z,103382.00
2023-02-06T20:07:47.273Z,103388.06
2023-02-06T20:09:48.770Z,103400.09
2023-02-06T20:11:50.936Z,103400.09
2023-02-06T20:13:52.362Z,103393.91
2023-02-06T20:15:53.772Z,103412.16
2023-02-06T20:17:55.507Z,103398.16
2023-02-06T20:19:58.901Z,103407.75
2023-02-06T20:22:00.830Z,103404.28
2023-02-06T20:24:04.853Z,103406.00
2023-02-06T20:26:06.301Z,103417.13
2023-02-06T20:28:07.736Z,103422.41
2023-02-06T20:30:09.841Z,103398.94
2023-02-06T20:32:11.290Z,103414.63
2023-02-06T20:34:13.242Z,103394.78
2023-02-06T20:36:18.451Z,103407.00
2023-02-06T20:38:19.844Z,103423.25
2023-02-06T20:40:21.244Z,103405.00
2023-02-06T20:42:22.954Z,103411.13
2023-02-06T20:44:24.381Z,103405.31
2023-02-06T20:46:27.378Z,103401.59
2023-02-06T20:48:29.446Z,103424.28
2023-02-06T20:50:30.987Z,103420.81
2023-02-06T20:52:33.261Z,103415.66
2023-02-06T20:54:34.739Z,103412.91
2023-02-06T20:56:36.161Z,103422.56
2023-02-06T20:58:37.718Z,103397.41
2023-02-06T21:00:39.426Z,103404.47
2023-02-06T21:02:40.930Z,103418.41
2023-02-06T21:04:42.506Z,103388.03
2023-02-06T21:06:45.110Z,103386.22
2023-02-06T21:08:48.382Z,103408.91
2023-02-06T21:10:50.854Z,103379.91
2023-02-06T21:12:52.535Z,103389.06
2023-02-06T21:14:54.288Z,103385.63
2023-02-06T21:16:56.584Z,103417.00
2023-02-06T21:18:58.809Z,103400.53
2023-02-06T21:21:06.838Z,103371.13
2023-02-06T21:23:08.321Z,103396.25
2023-02-06T21:25:09.947Z,103400.53
2023-02-06T21:27:11.356Z,103403.16
2023-02-06T21:29:14.339Z,103395.91
2023-02-06T21:31:20.051Z,103413.16
2023-02-06T21:33:21.495Z,103416.47
2023-02-06T21:35:23.044Z,103417.31
2023-02-06T21:37:24.898Z,103425.09
2023-02-06T21:39:26.368Z,103421.72
2023-02-06T21:41:28.251Z,103386.91
2023-02-06T21:43:29.768Z,103381.63
2023-02-06T21:45:31.167Z,103421.59
2023-02-06T21:47:34.024Z,103418.94
2023-02-06T21:49:35.541Z,103409.94
2023-02-06T21:51:37.312Z,103415.22
2023-02-06T21:53:39.210Z,103419.66
2023-02-06T21:55:44.752Z,103423.94
2023-02-06T21:57:46.141Z,103424.16
2023-02-06T21:59:47.543Z,103430.50
2023-02-06T22:01:49.291Z,103351.59
2023-02-06T22:03:51.416Z,103442.94
2023-02-06T22:05:52.872Z,103446.53
2023-02-06T22:07:54.516Z,103441.38
2023-02-06T22:09:55.931Z,103403.22
2023-02-06T22:11:57.372Z,103413.78
2023-02-06T22:14:01.743Z,103369.38
2023-02-06T22:16:03.319Z,103435.31
2023-02-06T22:18:04.828Z,103432.00
2023-02-06T22:20:06.684Z,103435.56
2023-02-06T22:22:08.091Z,103431.38
2023-02-06T22:24:11.532Z,103447.88
2023-02-06T22:26:14.424Z,103450.53
2023-02-06T22:28:15.899Z,103406.28
2023-02-06T22:30:17.537Z,103436.03
2023-02-06T22:32:19.217Z,103394.16
2023-02-06T22:34:21.081Z,103442.72
2023-02-06T22:36:25.177Z,103439.41
2023-02-06T22:38:26.774Z,103439.75
2023-02-06T22:40:28.215Z,103422.38
2023-02-06T22:42:29.661Z,103434.63
2023-02-06T22:44:31.236Z,103394.00
2023-02-06T22:46:36.447Z,103423.66
2023-02-06T22:48:38.912Z,103405.38
2023-02-06T22:50:40.597Z,103411.44
2023-02-06T22:52:42.012Z,103381.84
2023-02-06T22:54:43.462Z,103437.59
2023-02-06T22:56:45.339Z,103407.13
2023-02-06T22:58:48.098Z,103403.69
2023-02-06T23:00:49.569Z,103413.09
2023-02-06T23:02:51.098Z,103427.09
2023-02-06T23:04:52.512Z,103444.56
2023-02-06T23:06:54.161Z,103390.75
2023-02-06T23:08:56.813Z,103424.66
2023-02-06T23:10:58.256Z,103414.09
2023-02-06T23:12:59.640Z,103450.44
2023-02-06T23:15:01.196Z,103449.63
2023-02-06T23:17:03.189Z,103384.63
2023-02-06T23:19:06.465Z,103441.00
2023-02-06T23:21:10.856Z,103439.41
2023-02-06T23:23:12.319Z,103438.63
2023-02-06T23:25:13.767Z,103400.41
2023-02-06T23:27:15.512Z,103433.47
2023-02-06T23:29:18.988Z,103422.16
2023-02-06T23:31:20.391Z,103439.56
2023-02-06T23:33:22.734Z,103396.13
2023-02-06T23:35:24.128Z,103437.84
2023-02-06T23:37:25.525Z,103415.25
2023-02-06T23:39:27.320Z,103443.97
2023-02-06T23:41:29.026Z,103404.81
2023-02-06T23:43:30.402Z,103396.25
2023-02-06T23:45:32.546Z,103435.34
2023-02-06T23:47:34.650Z,103419.06
2023-02-06T23:49:36.180Z,103416.38
2023-02-06T23:51:38.112Z,103416.31
2023-02-06T23:53:39.558Z,103406.78
2023-02-06T23:55:40.980Z,103371.94